Time;durP1;ratioP1;P1;durP2;ratioP2;P2;SDS_P1;SDS_P2;PMS_P1;PMS_P2;Temp;Humidity;BMP_temperature;BMP_pressure;BME280_temperature;BME280_humidity;BME280_pressure;Samples;Min_cycle;Max_cycle;Signal;HPM_P1;HPM_P2
2021/06/19 00:00:11;;;;;;;8.15;6.63;;;20.30;91.00;;;;;;5050429;28;20049;-51
2021/06/19 00:02:37;;;;;;;6.72;5.65;;;20.30;91.40;;;;;;5050058;28;20053;-47
2021/06/19 00:05:03;;;;;;;6.85;6.13;;;20.20;91.90;;;;;;5050400;28;20053;-46
2021/06/19 00:07:29;;;;;;;8.27;6.97;;;20.20;92.60;;;;;;5050010;28;20025;-50
2021/06/19 00:09:54;;;;;;;7.05;6.10;;;20.10;92.80;;;;;;5048993;28;20142;-48
2021/06/19 00:12:20;;;;;;;7.45;6.47;;;20.10;93.00;;;;;;5052039;28;20353;-51
2021/06/19 00:14:45;;;;;;;7.15;6.13;;;20.10;93.30;;;;;;5054229;28;20025;-53
2021/06/19 00:17:12;;;;;;;7.95;7.03;;;20.00;93.80;;;;;;5054082;28;20315;-48
2021/06/19 00:19:38;;;;;;;7.72;6.80;;;20.00;94.60;;;;;;5054077;28;20060;-47
2021/06/19 00:22:04;;;;;;;7.82;6.50;;;20.00;95.30;;;;;;5036565;28;20057;-51
2021/06/19 00:24:36;;;;;;;8.15;7.35;;;20.00;94.70;;;;;;5034566;28;20057;-50
2021/06/19 00:27:03;;;;;;;10.15;7.63;;;20.00;95.70;;;;;;5035854;28;20060;-53
2021/06/19 00:29:30;;;;;;;9.35;6.97;;;20.10;94.90;;;;;;5035884;28;20057;-52
2021/06/19 00:31:55;;;;;;;7.72;6.70;;;20.10;94.80;;;;;;5035668;28;20045;-50
2021/06/19 00:34:21;;;;;;;7.03;6.32;;;20.00;94.70;;;;;;5036328;28;20064;-49
2021/06/19 00:36:46;;;;;;;8.05;7.13;;;20.00;95.80;;;;;;5035410;28;20053;-51
2021/06/19 00:39:12;;;;;;;7.10;6.43;;;19.90;96.20;;;;;;5034416;28;20028;-50
2021/06/19 00:41:37;;;;;;;11.65;8.10;;;19.90;96.30;;;;;;5035432;28;20033;-48
2021/06/19 00:44:04;;;;;;;7.63;6.40;;;19.90;96.50;;;;;;5035665;28;20031;-52
2021/06/19 00:46:30;;;;;;;7.90;7.13;;;19.80;96.60;;;;;;5035281;28;20017;-49
2021/06/19 00:48:55;;;;;;;9.07;6.95;;;19.70;96.90;;;;;;5035622;28;20032;-52
2021/06/19 00:51:21;;;;;;;8.98;6.75;;;19.60;97.80;;;;;;5035618;28;20026;-53
2021/06/19 00:53:47;;;;;;;8.85;7.95;;;19.60;97.90;;;;;;5033925;28;20045;-50
2021/06/19 00:56:13;;;;;;;11.68;7.97;;;19.60;98.10;;;;;;5035418;28;20161;-48
2021/06/19 00:58:39;;;;;;;7.90;7.10;;;19.60;98.50;;;;;;5035139;28;20033;-47
2021/06/19 01:01:05;;;;;;;10.32;6.60;;;19.60;98.50;;;;;;5035128;28;20107;-48
2021/06/19 01:03:30;;;;;;;7.70;6.75;;;19.60;98.20;;;;;;5035213;28;20064;-50
2021/06/19 01:05:56;;;;;;;6.88;6.28;;;19.50;98.60;;;;;;5035203;28;20022;-48
2021/06/19 01:08:21;;;;;;;8.98;8.02;;;19.50;99.50;;;;;;5033906;28;20104;-50
2021/06/19 01:10:47;;;;;;;9.63;7.38;;;19.40;99.30;;;;;;5035036;28;20045;-50
2021/06/19 01:13:12;;;;;;;9.18;7.05;;;19.40;99.20;;;;;;5035144;28;20080;-52
2021/06/19 01:15:38;;;;;;;7.18;6.47;;;19.40;99.60;;;;;;5034877;28;20025;-49
2021/06/19 01:18:04;;;;;;;8.35;6.63;;;19.40;99.70;;;;;;5034973;28;20140;-52
2021/06/19 01:20:36;;;;;;;9.27;6.82;;;19.40;99.90;;;;;;5035100;28;20024;-52
2021/06/19 01:23:01;;;;;;;8.23;7.43;;;19.30;99.90;;;;;;5033433;28;20026;-48
2021/06/19 01:25:32;;;;;;;7.05;6.32;;;19.20;99.90;;;;;;5034781;28;20025;-50
2021/06/19 01:27:58;;;;;;;8.93;7.97;;;19.10;99.90;;;;;;5034789;28;20392;-48
2021/06/19 01:30:26;;;;;;;9.25;8.35;;;19.00;99.90;;;;;;5034686;28;20033;-49
2021/06/19 01:32:52;;;;;;;7.72;6.93;;;19.00;99.90;;;;;;5034619;28;20072;-50
2021/06/19 01:35:18;;;;;;;7.57;6.45;;;19.00;99.90;;;;;;5034633;28;20037;-50
2021/06/19 01:37:45;;;;;;;9.60;8.52;;;18.90;99.90;;;;;;5033261;28;20440;-49
2021/06/19 01:40:26;;;;;;;8.13;6.55;;;18.90;99.90;;;;;;5034489;28;20022;-52
2021/06/19 01:42:52;;;;;;;7.57;6.53;;;18.90;99.90;;;;;;5034212;28;20040;-51
2021/06/19 01:45:23;;;;;;;7.03;6.32;;;18.80;99.90;;;;;;5034520;28;20385;-46
2021/06/19 01:47:49;;;;;;;10.55;7.50;;;18.80;99.90;;;;;;5034343;28;20053;-52
2021/06/19 01:50:18;;;;;;;10.35;8.15;;;18.70;99.90;;;;;;5034544;28;20037;-50
2021/06/19 01:52:44;;;;;;;8.88;8.05;;;18.70;99.90;;;;;;5032952;28;20116;-50
2021/06/19 01:55:10;;;;;;;8.13;7.15;;;18.80;99.90;;;;;;5034142;28;20104;-47
2021/06/19 01:57:38;;;;;;;8.10;7.22;;;18.80;99.90;;;;;;5033942;28;20029;-48
2021/06/19 02:00:16;;;;;;;9.43;8.07;;;18.80;99.90;;;;;;5034133;28;20554;-48
2021/06/19 02:02:42;;;;;;;7.93;7.13;;;18.80;99.90;;;;;;5034075;28;20436;-49
2021/06/19 02:05:09;;;;;;;9.63;8.57;;;18.80;99.90;;;;;;5034483;28;20030;-49
2021/06/19 02:07:52;;;;;;;9.20;7.85;;;18.80;99.90;;;;;;5032807;28;20117;-50
2021/06/19 02:10:20;;;;;;;9.98;7.20;;;18.80;99.90;;;;;;5034006;28;20105;-50
2021/06/19 02:12:47;;;;;;;7.55;6.75;;;18.70;99.90;;;;;;5034146;28;20026;-49
2021/06/19 02:15:13;;;;;;;7.63;6.85;;;18.70;99.90;;;;;;5033938;28;20389;-48
2021/06/19 02:17:38;;;;;;;9.80;8.68;;;18.70;99.90;;;;;;5033672;28;20552;-48
2021/06/19 02:20:09;;;;;;;9.18;8.25;;;18.60;99.90;;;;;;5033942;28;20104;-51
2021/06/19 02:22:35;;;;;;;10.13;7.93;;;18.60;99.90;;;;;;5032463;28;20416;-51
2021/06/19 02:25:09;;;;;;;8.55;6.90;;;18.50;99.90;;;;;;5033635;28;20033;-50
2021/06/19 02:27:34;;;;;;;8.95;6.72;;;18.40;99.90;;;;;;5033474;28;20025;-52
2021/06/19 02:30:00;;;;;;;11.13;8.15;;;18.40;99.90;;;;;;5033594;28;20026;-52
2021/06/19 02:32:26;;;;;;;11.68;8.95;;;18.40;99.90;;;;;;5033710;28;20029;-50
2021/06/19 02:34:52;;;;;;;10.30;8.43;;;18.30;99.90;;;;;;5033013;28;20029;-47
2021/06/19 02:37:18;;;;;;;7.35;6.65;;;18.30;99.90;;;;;;5033364;28;20026;-47
2021/06/19 02:39:44;;;;;;;9.20;7.82;;;18.20;99.90;;;;;;5032185;28;20409;-52
2021/06/19 02:42:10;;;;;;;7.18;6.13;;;18.30;99.90;;;;;;5033277;28;20048;-48
2021/06/19 02:44:36;;;;;;;9.13;7.38;;;18.30;99.90;;;;;;5033365;28;20064;-48
2021/06/19 02:47:02;;;;;;;9.10;8.13;;;18.20;99.90;;;;;;5033300;28;20444;-49
2021/06/19 02:49:28;;;;;;;8.20;7.40;;;18.30;99.90;;;;;;5033401;28;20033;-50
2021/06/19 02:51:54;;;;;;;8.55;7.65;;;18.30;99.90;;;;;;5033204;28;20022;-47
2021/06/19 02:54:19;;;;;;;7.07;6.40;;;18.30;99.90;;;;;;5031866;28;20087;-52
2021/06/19 02:56:45;;;;;;;8.95;7.65;;;18.30;99.90;;;;;;5033126;28;20029;-49
2021/06/19 02:59:10;;;;;;;10.88;8.77;;;18.20;99.90;;;;;;5033067;28;20469;-51
2021/06/19 03:01:36;;;;;;;9.77;8.50;;;18.20;99.90;;;;;;5032288;28;20045;-49
2021/06/19 03:04:01;;;;;;;10.48;9.23;;;18.20;99.90;;;;;;5032105;28;20480;-52
2021/06/19 03:06:27;;;;;;;11.02;9.73;;;18.20;99.90;;;;;;5032211;28;20278;-51
2021/06/19 03:08:52;;;;;;;11.68;9.05;;;18.20;99.90;;;;;;5030813;28;20025;-50
2021/06/19 03:11:18;;;;;;;8.90;8.00;;;18.30;99.90;;;;;;5032252;28;20425;-49
2021/06/19 03:13:43;;;;;;;9.88;8.82;;;18.40;99.90;;;;;;5031921;28;20061;-49
2021/06/19 03:16:09;;;;;;;8.32;7.53;;;18.40;99.90;;;;;;5032024;28;20369;-50
2021/06/19 03:18:34;;;;;;;8.70;7.85;;;18.40;99.90;;;;;;5031922;28;20037;-51
2021/06/19 03:21:00;;;;;;;10.05;8.98;;;18.40;99.90;;;;;;5031822;28;20025;-46
2021/06/19 03:23:25;;;;;;;10.77;9.68;;;18.50;99.90;;;;;;5030689;28;20026;-51
2021/06/19 03:25:51;;;;;;;11.07;9.48;;;18.50;99.90;;;;;;5031769;28;20026;-50
2021/06/19 03:28:16;;;;;;;11.88;10.68;;;18.60;99.90;;;;;;5031747;28;20032;-53
2021/06/19 03:30:46;;;;;;;9.77;7.78;;;18.60;99.90;;;;;;5031898;28;20026;-49
2021/06/19 03:33:13;;;;;;;10.88;9.05;;;18.80;99.90;;;;;;5031801;28;20034;-50
2021/06/19 03:35:39;;;;;;;9.77;8.57;;;18.80;99.90;;;;;;5031657;28;20018;-53
2021/06/19 03:38:06;;;;;;;9.50;8.60;;;18.90;99.90;;;;;;5030362;28;20444;-50
2021/06/19 03:40:33;;;;;;;10.07;7.95;;;19.10;99.90;;;;;;5031838;28;20021;-50
2021/06/19 03:42:58;;;;;;;8.75;7.85;;;19.90;99.90;;;;;;5031355;28;20025;-52
2021/06/19 03:45:27;;;;;;;10.02;9.02;;;21.00;99.90;;;;;;5031801;28;20108;-50
2021/06/19 03:47:55;;;;;;;9.40;7.50;;;22.10;98.60;;;;;;5030368;28;20029;-50
2021/06/19 03:50:23;;;;;;;10.05;8.73;;;23.10;94.10;;;;;;5031615;28;20519;-52
2021/06/19 03:52:49;;;;;;;9.35;8.35;;;24.10;90.80;;;;;;5030271;28;20646;-48
2021/06/19 03:55:14;;;;;;;8.93;8.02;;;25.00;86.00;;;;;;5030106;28;20112;-54
2021/06/19 03:57:40;;;;;;;12.05;8.70;;;25.60;81.70;;;;;;5031372;28;20040;-51
2021/06/19 04:00:09;;;;;;;9.07;7.78;;;26.40;79.00;;;;;;5029768;28;49739;-52
2021/06/19 04:02:34;;;;;;;9.30;8.18;;;26.90;75.30;;;;;;5032170;28;20037;-51
2021/06/19 04:05:00;;;;;;;7.88;7.18;;;27.40;74.30;;;;;;5032176;28;20025;-47
2021/06/19 04:07:25;;;;;;;8.70;7.80;;;27.90;72.60;;;;;;5032288;28;20029;-49
2021/06/19 04:09:52;;;;;;;7.82;7.13;;;28.40;70.50;;;;;;5027124;28;20034;-52
2021/06/19 04:12:21;;;;;;;9.23;7.13;;;29.00;69.00;;;;;;5020551;28;20061;-52
2021/06/19 04:14:48;;;;;;;8.73;7.80;;;29.70;67.90;;;;;;5039821;28;20386;-54
2021/06/19 04:17:13;;;;;;;7.07;6.40;;;30.30;66.30;;;;;;5030362;28;20036;-54
2021/06/19 04:19:39;;;;;;;8.73;6.85;;;30.60;64.80;;;;;;5032515;28;20025;-51
2021/06/19 04:22:09;;;;;;;7.75;7.00;;;30.90;63.00;;;;;;5050241;28;20077;-54
2021/06/19 04:24:35;;;;;;;8.52;7.28;;;31.10;62.90;;;;;;5048838;28;20112;-54
2021/06/19 04:27:02;;;;;;;8.13;7.32;;;31.30;61.80;;;;;;5044162;28;20029;-53
2021/06/19 04:29:30;;;;;;;8.23;7.20;;;31.70;61.10;;;;;;5030061;28;20037;-50
2021/06/19 04:31:56;;;;;;;7.35;6.65;;;32.00;60.40;;;;;;5030092;28;20033;-50
2021/06/19 04:34:22;;;;;;;8.10;7.40;;;32.30;59.40;;;;;;5030239;28;20388;-54
2021/06/19 04:36:49;;;;;;;8.07;7.38;;;32.40;58.10;;;;;;5030000;28;20037;-52
2021/06/19 04:39:15;;;;;;;8.27;7.18;;;32.50;57.40;;;;;;5028919;28;20148;-52
2021/06/19 04:41:50;;;;;;;7.82;7.13;;;32.50;56.90;;;;;;5033172;28;20105;-51
2021/06/19 04:46:51;;;;;;;8.13;7.32;;;33.00;56.10;;;;;;5030212;28;20029;-53
2021/06/19 04:49:17;;;;;;;8.60;7.18;;;33.70;55.00;;;;;;5030113;28;20033;-52
2021/06/19 04:51:42;;;;;;;6.70;6.10;;;34.40;54.10;;;;;;5030343;28;20054;-51
2021/06/19 04:54:08;;;;;;;6.93;6.30;;;35.10;53.20;;;;;;5028574;28;20120;-52
2021/06/19 04:56:36;;;;;;;7.55;6.85;;;35.70;52.20;;;;;;5029855;28;20401;-55
2021/06/19 04:59:02;;;;;;;8.60;7.18;;;35.90;50.90;;;;;;5032132;28;20381;-52
2021/06/19 05:01:28;;;;;;;6.45;5.85;;;36.00;50.80;;;;;;5033488;28;20046;-52
2021/06/19 05:03:53;;;;;;;7.18;6.40;;;36.20;50.80;;;;;;5033445;28;20018;-55
2021/06/19 05:06:19;;;;;;;7.05;6.45;;;36.50;50.00;;;;;;5033214;28;20032;-53
2021/06/19 05:08:44;;;;;;;7.25;6.55;;;36.70;49.10;;;;;;5032140;28;20108;-53
2021/06/19 05:11:10;;;;;;;9.15;7.35;;;36.90;48.40;;;;;;5029525;28;20025;-54
2021/06/19 05:13:36;;;;;;;7.65;7.05;;;36.80;47.30;;;;;;5039344;28;20034;-51
2021/06/19 05:16:01;;;;;;;7.70;6.93;;;36.90;46.80;;;;;;5052469;28;20115;-51
2021/06/19 05:18:27;;;;;;;7.82;7.13;;;36.80;47.00;;;;;;5044953;28;20049;-53
2021/06/19 05:20:52;;;;;;;8.60;7.22;;;36.80;46.90;;;;;;5032589;28;20096;-50
2021/06/19 05:23:18;;;;;;;6.95;6.35;;;36.80;46.80;;;;;;5031508;28;20124;-53
2021/06/19 05:25:44;;;;;;;7.20;6.60;;;36.90;46.80;;;;;;5032784;28;20424;-52
2021/06/19 05:28:10;;;;;;;7.30;6.60;;;37.10;46.40;;;;;;5032351;28;20037;-55
2021/06/19 05:30:36;;;;;;;7.60;6.93;;;37.60;45.60;;;;;;5034493;28;20071;-54
2021/06/19 05:33:01;;;;;;;8.73;6.10;;;37.70;44.60;;;;;;5034618;28;20366;-55
2021/06/19 05:35:27;;;;;;;7.60;6.65;;;38.40;44.50;;;;;;5034530;28;20033;-54
2021/06/19 05:37:52;;;;;;;9.57;7.20;;;38.70;43.40;;;;;;5033433;28;20025;-54
2021/06/19 05:40:18;;;;;;;6.30;5.72;;;39.00;43.20;;;;;;5034465;28;20026;-54
2021/06/19 05:42:43;;;;;;;6.45;5.85;;;39.80;43.00;;;;;;5034491;28;20052;-53
2021/06/19 05:45:11;;;;;;;6.80;6.20;;;40.20;42.50;;;;;;5034229;28;20408;-56
2021/06/19 05:47:36;;;;;;;6.55;5.80;;;40.20;41.30;;;;;;5034618;28;20040;-50
2021/06/19 05:50:03;;;;;;;7.43;6.40;;;40.30;42.00;;;;;;5034628;28;20033;-54
2021/06/19 05:52:28;;;;;;;8.48;6.05;;;40.50;41.40;;;;;;5033432;28;20033;-52
2021/06/19 05:54:54;;;;;;;7.20;6.07;;;40.60;41.10;;;;;;5034312;28;20025;-49
2021/06/19 05:57:19;;;;;;;6.68;5.72;;;41.00;40.80;;;;;;5032715;28;20041;-54
2021/06/19 05:59:45;;;;;;;5.65;5.15;;;41.30;39.90;;;;;;5025618;28;20647;-55
2021/06/19 06:02:10;;;;;;;7.63;6.80;;;41.50;40.50;;;;;;5033289;28;20037;-51
2021/06/19 06:04:36;;;;;;;7.22;5.97;;;41.90;39.30;;;;;;5033812;28;20404;-54
2021/06/19 06:07:03;;;;;;;6.22;5.72;;;42.00;39.00;;;;;;5033862;28;20029;-54
2021/06/19 06:09:28;;;;;;;6.80;6.20;;;42.40;39.00;;;;;;5031665;28;20037;-55
2021/06/19 06:11:54;;;;;;;6.30;5.80;;;42.00;39.20;;;;;;5046607;28;20376;-53
2021/06/19 06:14:21;;;;;;;7.50;6.80;;;41.80;39.30;;;;;;5052429;28;20025;-51
2021/06/19 06:16:46;;;;;;;7.00;6.22;;;41.50;38.80;;;;;;5053559;28;20032;-53
2021/06/19 06:19:12;;;;;;;7.53;5.97;;;41.50;39.10;;;;;;5053668;28;20026;-56
2021/06/19 06:21:37;;;;;;;6.82;5.40;;;42.20;38.90;;;;;;5053640;28;20036;-48
2021/06/19 06:24:04;;;;;;;6.10;5.50;;;42.60;38.60;;;;;;5052657;28;20024;-55
2021/06/19 06:26:29;;;;;;;6.47;5.88;;;42.80;38.10;;;;;;5053431;28;20464;-52
2021/06/19 06:28:55;;;;;;;8.02;5.97;;;43.30;37.60;;;;;;5053598;28;20083;-54
2021/06/19 06:31:20;;;;;;;6.43;5.88;;;43.60;37.20;;;;;;5053146;28;20036;-53
2021/06/19 06:33:47;;;;;;;6.57;5.88;;;43.80;37.10;;;;;;5053479;28;20039;-52
2021/06/19 06:36:13;;;;;;;7.22;6.47;;;43.90;37.10;;;;;;5042398;28;20495;-53
2021/06/19 06:38:38;;;;;;;6.53;5.93;;;43.60;36.90;;;;;;5032172;28;20034;-56
2021/06/19 06:41:04;;;;;;;6.30;5.72;;;43.40;36.70;;;;;;5033143;28;20112;-50
2021/06/19 06:43:29;;;;;;;5.63;5.13;;;43.60;36.80;;;;;;5033201;28;20159;-54
2021/06/19 06:45:55;;;;;;;9.88;6.60;;;43.80;36.90;;;;;;5033326;28;20033;-51
2021/06/19 06:48:20;;;;;;;5.60;5.13;;;43.60;36.30;;;;;;5033279;28;20017;-55
2021/06/19 06:50:46;;;;;;;5.93;5.50;;;44.10;36.40;;;;;;5033306;28;20022;-52
2021/06/19 06:53:11;;;;;;;7.07;6.40;;;44.60;36.10;;;;;;5032286;28;20030;-51
2021/06/19 06:55:37;;;;;;;5.97;5.18;;;44.50;35.90;;;;;;5033083;28;20017;-50
2021/06/19 06:58:02;;;;;;;5.63;5.22;;;44.70;36.30;;;;;;5033115;28;20477;-53
2021/06/19 07:00:28;;;;;;;6.38;5.88;;;44.50;36.00;;;;;;5032933;28;20061;-55
2021/06/19 07:02:53;;;;;;;5.50;5.07;;;44.50;36.00;;;;;;5033138;28;20546;-50
2021/06/19 07:05:19;;;;;;;6.47;5.90;;;45.00;35.80;;;;;;5025904;28;20017;-53
2021/06/19 07:07:45;;;;;;;5.80;5.40;;;45.30;35.40;;;;;;5031938;28;20037;-52
2021/06/19 07:10:13;;;;;;;6.03;5.53;;;45.70;35.10;;;;;;5032909;28;20021;-56
2021/06/19 07:12:43;;;;;;;6.05;5.47;;;45.70;34.60;;;;;;5051916;28;20365;-49
2021/06/19 07:15:11;;;;;;;6.05;5.45;;;45.70;34.60;;;;;;5052731;28;20028;-54
2021/06/19 07:17:37;;;;;;;5.53;5.07;;;45.50;34.70;;;;;;5052612;28;20033;-52
2021/06/19 07:20:05;;;;;;;5.60;4.82;;;45.60;34.60;;;;;;5052839;28;20036;-51
2021/06/19 07:22:30;;;;;;;6.65;5.70;;;45.80;34.30;;;;;;5051512;28;20029;-54
2021/06/19 07:24:56;;;;;;;11.25;5.95;;;45.70;34.10;;;;;;5052577;28;20544;-52
2021/06/19 07:27:21;;;;;;;6.65;5.95;;;46.10;33.80;;;;;;5052399;28;20063;-53
2021/06/19 07:29:47;;;;;;;7.65;5.97;;;45.80;33.90;;;;;;5052654;28;20029;-53
2021/06/19 07:32:12;;;;;;;7.15;6.55;;;45.40;34.30;;;;;;5052322;28;20079;-53
2021/06/19 07:34:38;;;;;;;7.88;6.15;;;45.30;34.10;;;;;;5052572;28;20029;-52
2021/06/19 07:37:04;;;;;;;8.40;6.20;;;45.60;34.10;;;;;;5034724;28;20041;-54
2021/06/19 07:39:29;;;;;;;5.85;5.22;;;45.80;34.00;;;;;;5031473;28;20063;-52
2021/06/19 07:41:55;;;;;;;5.75;5.25;;;45.90;34.10;;;;;;5032487;28;20031;-53
2021/06/19 07:44:21;;;;;;;5.07;4.68;;;46.20;33.90;;;;;;5032450;28;20026;-53
2021/06/19 07:46:47;;;;;;;5.13;4.70;;;47.00;33.70;;;;;;5032440;28;20147;-51
2021/06/19 07:49:13;;;;;;;5.70;4.70;;;47.50;33.40;;;;;;5032302;28;20087;-55
2021/06/19 07:51:39;;;;;;;5.10;4.68;;;47.60;33.30;;;;;;5032396;28;20028;-55
2021/06/19 07:54:05;;;;;;;5.75;4.70;;;48.00;33.00;;;;;;5031528;28;20100;-51
2021/06/19 07:56:31;;;;;;;5.70;4.40;;;48.00;32.90;;;;;;5032141;28;20441;-54
2021/06/19 07:58:56;;;;;;;5.30;4.90;;;48.30;32.90;;;;;;5032389;28;20040;-52
2021/06/19 08:01:22;;;;;;;5.43;4.72;;;48.80;32.50;;;;;;5032083;28;20052;-52
2021/06/19 08:03:47;;;;;;;7.78;4.65;;;48.70;32.30;;;;;;5028083;28;20068;-53
2021/06/19 08:06:13;;;;;;;4.78;4.38;;;48.80;32.20;;;;;;5032022;28;20026;-53
2021/06/19 08:08:38;;;;;;;5.22;4.45;;;49.10;32.30;;;;;;5031112;28;20499;-53
2021/06/19 08:11:04;;;;;;;5.70;4.22;;;49.10;32.00;;;;;;5037873;28;20017;-54
2021/06/19 08:13:29;;;;;;;5.03;4.28;;;49.40;31.90;;;;;;5051837;28;20036;-50
2021/06/19 08:15:57;;;;;;;5.00;4.47;;;49.80;31.50;;;;;;5052209;28;20380;-53
2021/06/19 08:18:22;;;;;;;4.85;4.35;;;49.60;31.40;;;;;;5051762;28;20021;-49
2021/06/19 08:20:48;;;;;;;5.18;4.20;;;49.00;31.80;;;;;;5051972;28;20052;-53
2021/06/19 08:23:13;;;;;;;5.35;4.45;;;48.70;32.00;;;;;;5050933;28;20089;-52
2021/06/19 08:25:39;;;;;;;4.65;4.25;;;48.60;32.10;;;;;;5051681;28;20021;-50
2021/06/19 08:28:05;;;;;;;4.95;3.60;;;48.80;32.10;;;;;;5050686;28;20033;-56
2021/06/19 08:30:31;;;;;;;4.32;3.90;;;49.40;32.00;;;;;;5051789;28;20025;-54
2021/06/19 08:32:56;;;;;;;3.70;3.38;;;49.70;31.80;;;;;;5052924;28;20156;-52
2021/06/19 08:35:22;;;;;;;4.05;3.75;;;49.90;31.40;;;;;;5051670;28;20045;-55
2021/06/19 08:37:47;;;;;;;4.20;3.80;;;50.10;31.20;;;;;;5034838;28;20104;-55
2021/06/19 08:40:13;;;;;;;4.50;3.90;;;49.80;31.10;;;;;;5024382;28;20030;-52
2021/06/19 08:42:39;;;;;;;3.92;3.63;;;49.30;31.10;;;;;;5046941;28;20025;-53
2021/06/19 08:45:06;;;;;;;11.18;4.43;;;49.00;31.40;;;;;;5031334;28;20081;-55
2021/06/19 08:47:36;;;;;;;4.57;4.18;;;48.80;31.40;;;;;;5032654;28;20021;-56
2021/06/19 08:50:20;;;;;;;4.47;3.80;;;49.10;31.60;;;;;;5032696;28;20048;-52
2021/06/19 08:52:46;;;;;;;;;;;49.20;30.60;;;;;;5051429;28;20459;-53
2021/06/19 08:55:15;;;;;;;4.50;3.88;;;49.30;31.20;;;;;;5053708;28;19912;-48
2021/06/19 08:57:41;;;;;;;4.25;3.85;;;49.00;31.30;;;;;;5035943;28;20071;-50
2021/06/19 09:00:11;;;;;;;4.13;3.75;;;49.10;31.30;;;;;;5033395;28;20037;-52
2021/06/19 09:02:37;;;;;;;4.95;4.32;;;49.40;31.30;;;;;;5033417;28;20044;-52
2021/06/19 09:05:13;;;;;;;4.22;3.88;;;49.50;30.80;;;;;;5033189;28;20017;-52
2021/06/19 09:07:45;;;;;;;7.90;3.85;;;49.60;30.80;;;;;;5032436;28;20433;-55
2021/06/19 09:10:31;;;;;;;4.78;4.25;;;49.20;30.90;;;;;;5033328;28;20041;-51
2021/06/19 09:12:58;;;;;;;5.20;4.50;;;48.90;30.70;;;;;;5022012;28;20064;-54
2021/06/19 09:15:24;;;;;;;6.60;4.50;;;49.10;31.00;;;;;;5048464;28;20029;-50
2021/06/19 09:18:35;;;;;;;4.30;4.00;;;48.40;31.00;;;;;;5053111;28;20040;-53
2021/06/19 09:21:03;;;;;;;4.05;3.60;;;47.60;31.60;;;;;;5037284;28;20045;-53
2021/06/19 09:23:28;;;;;;;4.10;3.80;;;47.40;32.00;;;;;;5025856;28;20120;-53
2021/06/19 09:26:20;;;;;;;7.20;4.80;;;47.60;32.00;;;;;;5032967;28;20101;-52
2021/06/19 09:29:07;;;;;;;4.40;4.00;;;47.60;31.40;;;;;;5033165;28;20029;-54
2021/06/19 09:31:50;;;;;;;4.00;3.70;;;47.60;32.40;;;;;;5033035;28;20030;-54
2021/06/19 09:34:18;;;;;;;3.92;3.60;;;47.90;31.50;;;;;;5033057;28;20436;-53
2021/06/19 09:36:56;;;;;;;4.03;3.10;;;48.00;31.30;;;;;;5032518;28;20036;-55
2021/06/19 09:39:25;;;;;;;4.10;3.20;;;48.20;31.60;;;;;;5032172;28;20108;-52
2021/06/19 09:41:59;;;;;;;3.92;3.50;;;48.30;30.70;;;;;;5032892;28;20041;-55
2021/06/19 09:44:46;;;;;;;3.30;3.10;;;48.10;30.70;;;;;;5032646;28;20485;-48
2021/06/19 09:47:17;;;;;;;3.35;3.05;;;48.20;30.40;;;;;;5029219;28;20033;-53
2021/06/19 09:49:47;;;;;;;3.92;3.60;;;47.90;30.80;;;;;;5043845;28;20021;-53
2021/06/19 09:52:13;;;;;;;8.15;4.65;;;47.40;30.70;;;;;;5052370;28;20028;-51
2021/06/19 09:54:40;;;;;;;4.15;3.75;;;46.60;30.70;;;;;;5051570;28;20044;-51
2021/06/19 09:57:09;;;;;;;4.85;3.90;;;45.70;31.50;;;;;;5052190;28;20492;-51
2021/06/19 09:59:36;;;;;;;3.95;3.65;;;44.30;31.90;;;;;;5051983;28;20021;-50
2021/06/19 10:02:04;;;;;;;3.83;3.53;;;43.40;32.70;;;;;;5052449;28;20415;-49
2021/06/19 10:04:31;;;;;;;5.47;3.53;;;42.70;33.00;;;;;;5052204;28;20043;-52
2021/06/19 10:06:58;;;;;;;4.97;3.42;;;42.30;33.50;;;;;;5052379;28;20028;-51
2021/06/19 10:09:24;;;;;;;4.05;3.28;;;42.10;33.80;;;;;;5051494;28;20120;-53
2021/06/19 10:11:54;;;;;;;4.55;3.67;;;41.70;33.90;;;;;;5039801;28;20101;-53
2021/06/19 10:14:24;;;;;;;3.90;3.60;;;41.40;34.20;;;;;;5051601;28;20478;-54
2021/06/19 10:16:52;;;;;;;3.45;3.22;;;41.10;34.30;;;;;;5051991;28;20529;-54
2021/06/19 10:19:21;;;;;;;4.15;3.33;;;40.90;34.50;;;;;;5019291;28;20037;-50
2021/06/19 10:21:52;;;;;;;4.05;3.50;;;40.80;35.00;;;;;;5031844;28;20144;-50
2021/06/19 10:24:20;;;;;;;3.60;3.35;;;40.70;34.90;;;;;;5031209;28;20025;-55
2021/06/19 10:26:46;;;;;;;7.93;4.28;;;40.40;35.10;;;;;;5031736;28;20660;-52
2021/06/19 10:29:12;;;;;;;7.28;3.85;;;40.10;35.20;;;;;;5032274;28;20105;-53
2021/06/19 10:31:53;;;;;;;4.80;4.30;;;39.60;35.40;;;;;;5031781;28;20061;-54
2021/06/19 10:34:32;;;;;;;6.78;4.03;;;39.20;36.10;;;;;;5031987;28;20033;-50
2021/06/19 10:37:04;;;;;;;4.63;4.10;;;39.20;36.50;;;;;;5031464;28;20377;-51
2021/06/19 10:39:35;;;;;;;5.80;5.20;;;39.10;36.30;;;;;;5030954;28;20060;-53
2021/06/19 10:42:01;;;;;;;5.40;4.90;;;39.00;36.50;;;;;;5019015;28;20021;-53
2021/06/19 10:44:58;;;;;;;4.65;4.25;;;38.70;36.30;;;;;;5031292;28;20152;-54
2021/06/19 10:47:26;;;;;;;5.05;4.13;;;38.40;36.70;;;;;;5026190;28;20061;-48
2021/06/19 10:49:53;;;;;;;5.03;4.00;;;38.30;36.60;;;;;;5047852;28;20418;-50
2021/06/19 10:52:37;;;;;;;3.70;3.40;;;38.30;36.50;;;;;;5050714;28;20063;-52
2021/06/19 10:55:12;;;;;;;4.13;3.83;;;38.30;36.50;;;;;;5051372;28;20025;-51
2021/06/19 10:57:42;;;;;;;4.60;4.10;;;38.30;36.00;;;;;;5050856;28;20021;-51
2021/06/19 11:00:28;;;;;;;4.65;3.85;;;38.30;36.30;;;;;;5051181;28;20083;-49
2021/06/19 11:02:55;;;;;;;3.60;3.30;;;38.30;36.10;;;;;;5051090;28;20020;-50
2021/06/19 11:05:40;;;;;;;3.40;3.10;;;38.40;36.10;;;;;;5051356;28;20033;-48
2021/06/19 11:08:06;;;;;;;4.25;3.25;;;38.30;35.80;;;;;;5050004;28;20028;-53
2021/06/19 11:10:50;;;;;;;3.72;3.42;;;38.30;36.10;;;;;;5049736;28;20380;-51
2021/06/19 11:13:31;;;;;;;3.92;3.10;;;38.10;36.30;;;;;;5031287;28;20025;-50
2021/06/19 11:16:25;;;;;;;4.43;3.17;;;38.10;36.20;;;;;;5031045;28;20517;-51
2021/06/19 11:18:55;;;;;;;3.97;3.25;;;38.00;36.20;;;;;;5030639;28;20096;-53
2021/06/19 11:21:28;;;;;;;3.35;3.05;;;37.90;36.10;;;;;;5031145;28;20029;-52
2021/06/19 11:23:59;;;;;;;5.22;3.13;;;37.90;36.00;;;;;;5029695;28;20029;-53
2021/06/19 11:26:59;;;;;;;4.68;2.90;;;37.80;36.10;;;;;;5030981;28;20029;-49
2021/06/19 11:29:41;;;;;;;3.85;3.20;;;37.80;35.60;;;;;;5031048;28;20076;-52
2021/06/19 11:32:29;;;;;;;3.92;3.53;;;37.70;36.00;;;;;;5028822;28;20037;-51
2021/06/19 11:35:00;;;;;;;3.63;3.33;;;37.70;36.20;;;;;;5030663;28;20075;-52
2021/06/19 11:37:53;;;;;;;4.72;3.80;;;37.60;36.30;;;;;;5018038;28;20057;-54
2021/06/19 11:40:34;;;;;;;3.92;3.63;;;37.60;35.70;;;;;;5030918;28;20029;-54
2021/06/19 11:43:00;;;;;;;4.38;3.95;;;37.50;36.30;;;;;;5030553;28;20440;-54
2021/06/19 11:45:26;;;;;;;5.57;4.68;;;37.30;36.50;;;;;;5030653;28;20377;-51
2021/06/19 11:48:07;;;;;;;4.90;4.50;;;37.20;36.60;;;;;;5022565;28;20100;-52
2021/06/19 11:50:38;;;;;;;4.43;4.03;;;36.90;37.00;;;;;;5050618;28;20472;-52
2021/06/19 11:53:32;;;;;;;4.35;4.05;;;36.90;37.10;;;;;;5049192;28;20472;-52
2021/06/19 11:56:11;;;;;;;4.50;4.10;;;36.90;37.50;;;;;;5050214;28;20031;-52
2021/06/19 11:58:50;;;;;;;4.40;3.63;;;37.00;36.90;;;;;;5050249;28;20037;-50
2021/06/19 12:01:18;;;;;;;4.30;3.92;;;37.10;37.60;;;;;;5050473;28;20048;-53
2021/06/19 12:03:46;;;;;;;6.07;3.78;;;37.10;37.00;;;;;;5050320;28;20468;-51
2021/06/19 12:06:12;;;;;;;5.60;4.03;;;37.10;36.80;;;;;;5050411;28;20017;-52
2021/06/19 12:08:39;;;;;;;4.22;3.80;;;37.10;36.90;;;;;;5051252;28;20048;-49
2021/06/19 12:11:04;;;;;;;4.78;3.42;;;37.10;37.10;;;;;;5048163;28;20036;-54
2021/06/19 12:13:35;;;;;;;4.10;3.72;;;37.20;37.10;;;;;;5034472;28;20381;-55
2021/06/19 12:16:03;;;;;;;4.45;4.05;;;37.20;37.20;;;;;;5034304;28;20040;-51
2021/06/19 12:18:29;;;;;;;4.75;4.15;;;37.20;37.10;;;;;;5034345;28;20036;-50
2021/06/19 12:21:14;;;;;;;4.20;3.80;;;37.20;37.00;;;;;;5034337;28;20026;-54
2021/06/19 12:23:45;;;;;;;4.47;3.63;;;37.20;37.20;;;;;;5033201;28;20051;-55
2021/06/19 12:26:12;;;;;;;3.47;3.17;;;37.20;37.20;;;;;;5034382;28;20037;-52
2021/06/19 12:28:42;;;;;;;4.10;3.70;;;37.20;37.10;;;;;;5033277;28;20033;-52
2021/06/19 12:31:08;;;;;;;3.95;3.42;;;37.20;37.00;;;;;;5024239;28;20026;-49
2021/06/19 12:33:34;;;;;;;4.10;3.78;;;37.20;37.20;;;;;;5033856;28;20033;-49
2021/06/19 12:36:03;;;;;;;4.65;3.58;;;37.30;37.30;;;;;;5033861;28;20037;-53
2021/06/19 12:38:30;;;;;;;6.38;5.03;;;37.20;37.30;;;;;;5033068;28;20037;-52
2021/06/19 12:40:57;;;;;;;5.20;4.70;;;37.00;37.40;;;;;;5034088;28;20388;-54
2021/06/19 12:43:23;;;;;;;6.70;4.53;;;36.80;37.30;;;;;;5033641;28;20394;-53
2021/06/19 12:45:50;;;;;;;4.72;4.32;;;36.60;37.70;;;;;;5033864;28;20384;-53
2021/06/19 12:48:32;;;;;;;5.72;4.70;;;36.50;38.10;;;;;;5029668;28;20029;-52
2021/06/19 12:51:00;;;;;;;5.15;3.75;;;36.40;38.40;;;;;;5053710;28;20028;-53
2021/06/19 12:53:34;;;;;;;5.13;4.03;;;36.40;38.50;;;;;;5052539;28;20511;-52